KAIK

Aiken Municipal Airport

Aiken, South Carolina, USA
METAR KAIK 150315Z AUTO 16007KT 10SM CLR 22/20 A3009 RMK AO2
Observed Flight Rules
Aug-15 @ 03:15 UTC (20 minutes ago) Visual Flight Rules
Wind Visibility Clouds
160° at 7 knots 10 miles
  • Clear skies
Temperatures Readings
Current 22°C / 72°F
Dewpoint 20°C / 68°F
Humidity 88%
Altimeter 30.09" Hg
Pressure 1019 hPa
Elevation 161
METAR KAIK 150315Z AUTO 16007KT 10SM CLR 22/20 A3009 RMK AO2
Observed Flight Rules
Aug-15 @ 03:15 UTC
(20 minutes ago)
VFR
Wind Visibility
160° at 7 knots 10 miles
Clouds
  • Clear skies
Temperature Dewpoint
22°C / 72°F 20°C / 68°F
Humidity Altimeter Pressure
88% 30.09" Hg 1019 hPa